Terminal Aerodrome Forecast
Issued by NWS

Home | Current Version | Previous Version | Text Only | Print | Product List | Glossary Off
Versions: 1 2 3 4 5 6 7 8 9 10 11 12

247
FTUS43 KMPX 162320
TAFRWF
TAF
KRWF 162320Z 1700/1724 22008KT P6SM SCT250
     FM170600 25005KT P6SM SKC
     FM171400 22010KT P6SM SKC=

USA.gov is the U.S. government's official web portal to all federal, state and local government web resources and services.